Time;durP1;ratioP1;P1;durP2;ratioP2;P2;SDS_P1;SDS_P2;PMS_P1;PMS_P2;Temp;Humidity;BMP_temperature;BMP_pressure;BME280_temperature;BME280_humidity;BME280_pressure;Samples;Min_cycle;Max_cycle;Signal;HPM_P1;HPM_P2
2022/10/27 00:01:20;;;;;;;;;1.75;1.75;;;;;18.88;68.10;101504.56;4841631;29;45314;-75
2022/10/27 00:03:49;;;;;;;;;2.00;2.00;;;;;18.84;67.83;101503.84;4847591;29;45437;-76
2022/10/27 00:06:14;;;;;;;;;5.00;2.50;;;;;18.85;67.91;101504.72;4831664;29;45200;-75
2022/10/27 00:08:40;;;;;;;;;2.50;2.50;;;;;18.81;68.00;101501.28;4831295;29;46149;-75
2022/10/27 00:11:06;;;;;;;;;7.00;2.00;;;;;18.83;67.82;101504.78;4845120;29;45338;-75
2022/10/27 00:13:32;;;;;;;;;1.00;1.00;;;;;18.85;68.00;101512.84;4856267;29;45303;-75
2022/10/27 00:15:59;;;;;;;;;1.00;1.00;;;;;18.79;68.05;101505.88;4831656;29;45629;-75
2022/10/27 00:18:24;;;;;;;;;2.00;2.00;;;;;18.75;68.01;101503.44;4842553;29;45429;-76
2022/10/27 00:21:08;;;;;;;;;3.00;1.00;;;;;18.78;67.89;101525.78;4833002;29;45388;-75
2022/10/27 00:23:33;;;;;;;;;2.00;2.00;;;;;18.78;67.87;101524.91;4842258;29;45407;-75
2022/10/27 00:26:00;;;;;;;;;2.25;2.00;;;;;18.80;67.70;101537.38;4848145;29;45308;-75
2022/10/27 00:28:26;;;;;;;;;2.00;2.00;;;;;18.80;67.86;101526.56;4841004;29;46202;-75
2022/10/27 00:31:00;;;;;;;;;3.00;3.00;;;;;18.72;67.91;101522.53;4831090;29;45443;-76
2022/10/27 00:33:26;;;;;;;;;3.00;3.00;;;;;18.73;67.61;101527.88;4842164;29;45195;-75
2022/10/27 00:35:52;;;;;;;;;2.75;2.25;;;;;18.66;68.10;101519.22;4838320;29;45232;-75
2022/10/27 00:38:17;;;;;;;;;2.25;1.50;;;;;18.66;67.75;101524.63;4845889;29;45265;-75
2022/10/27 00:40:42;;;;;;;;;2.00;1.75;;;;;18.61;68.21;101521.28;4831118;29;45294;-75
2022/10/27 00:43:24;;;;;;;;;2.00;2.00;;;;;18.58;68.02;101512.47;4859042;29;45494;-75
2022/10/27 00:45:49;;;;;;;;;2.50;2.50;;;;;18.55;67.90;101518.03;4836239;29;45437;-75
2022/10/27 00:48:15;;;;;;;;;2.25;2.25;;;;;18.56;67.74;101517.06;4844025;29;46141;-75
2022/10/27 00:50:41;;;;;;;;;0.75;0.75;;;;;18.49;68.20;101512.00;4832484;29;45265;-75
2022/10/27 00:53:07;;;;;;;;;0.75;0.75;;;;;18.49;68.05;101520.13;4832187;29;46197;-75
2022/10/27 00:55:37;;;;;;;;;2.50;1.25;;;;;18.49;67.70;101520.13;4833425;29;45249;-75
2022/10/27 00:58:06;;;;;;;;;1.75;1.75;;;;;18.52;67.94;101522.63;4853320;29;48529;-75
2022/10/27 01:00:35;;;;;;;;;2.50;1.75;;;;;18.51;67.79;101511.94;4840195;29;45309;-75
2022/10/27 01:03:02;;;;;;;;;2.00;2.00;;;;;18.47;68.19;101508.50;4830558;29;45366;-75
2022/10/27 01:05:28;;;;;;;;;0.50;0.50;;;;;18.49;68.06;101509.31;4842885;29;45563;-76
2022/10/27 01:07:58;;;;;;;;;2.00;2.00;;;;;18.48;68.13;101503.97;4846582;29;45587;-76
2022/10/27 01:10:25;;;;;;;;;2.25;2.25;;;;;18.48;67.89;101499.44;4835550;29;45507;-75
2022/10/27 01:12:52;;;;;;;;;2.75;2.75;;;;;18.41;68.11;101492.63;4841981;29;45452;-75
2022/10/27 01:15:17;;;;;;;;;1.75;1.75;;;;;18.41;67.75;101489.91;4840292;29;45320;-75
2022/10/27 01:17:52;;;;;;;;;3.25;1.75;;;;;18.32;67.96;101493.97;4835660;29;46118;-75
2022/10/27 01:20:42;;;;;;;;;1.50;1.50;;;;;18.40;68.26;101503.50;4847721;29;45447;-75
2022/10/27 01:23:29;;;;;;;;;0.75;0.75;;;;;18.39;67.99;101502.63;4848178;29;45278;-76
2022/10/27 01:26:06;;;;;;;;;3.50;1.75;;;;;18.39;67.94;101505.31;4832340;29;45315;-75
2022/10/27 01:28:52;;;;;;;;;1.75;1.75;;;;;18.32;68.19;101491.25;4846406;29;45440;-75
2022/10/27 01:31:31;;;;;;;;;1.00;1.00;;;;;18.29;68.19;101485.16;4840931;29;45388;-75
2022/10/27 01:34:26;;;;;;;;;2.50;1.50;;;;;18.34;68.00;101496.59;4830125;29;45294;-75
2022/10/27 01:36:58;;;;;;;;;1.75;1.75;;;;;18.30;67.86;101493.19;4841909;29;45401;-75
2022/10/27 01:39:29;;;;;;;;;1.00;1.00;;;;;18.28;68.44;101489.69;4848912;29;46305;-75
2022/10/27 01:42:06;;;;;;;;;2.25;2.25;;;;;18.24;67.85;101500.72;4836346;29;45735;-75
2022/10/27 01:44:39;;;;;;;;;2.75;2.75;;;;;18.17;68.07;101486.66;4847158;29;45412;-75
2022/10/27 01:47:06;;;;;;;;;2.00;2.00;;;;;18.20;67.87;101491.06;4839162;29;45450;-75
2022/10/27 01:49:36;;;;;;;;;3.25;1.75;;;;;18.21;68.51;101493.69;4832129;29;45527;-75
2022/10/27 01:52:04;;;;;;;;;3.75;2.00;;;;;18.21;68.27;101498.19;4832227;29;45498;-75
2022/10/27 01:54:30;;;;;;;;;2.75;2.75;;;;;18.17;68.22;101496.63;4841283;29;45259;-75
2022/10/27 01:57:21;;;;;;;;;3.00;3.00;;;;;18.19;68.06;101494.69;4838080;29;45327;-75
2022/10/27 01:59:53;;;;;;;;;2.00;2.00;;;;;18.18;68.09;101496.53;4835113;29;46163;-75
2022/10/27 02:02:42;;;;;;;;;1.50;1.50;;;;;18.15;68.04;101489.44;4836095;29;45419;-75
2022/10/27 02:05:19;;;;;;;;;1.50;1.50;;;;;18.10;68.32;101479.84;4837490;29;45212;-74
2022/10/27 02:07:58;;;;;;;;;0.50;0.50;;;;;17.97;68.23;101476.91;4843895;29;45451;-75
2022/10/27 02:10:31;;;;;;;;;2.25;2.25;;;;;18.03;68.04;101478.44;4834765;29;46138;-75
2022/10/27 02:12:57;;;;;;;;;1.75;1.75;;;;;18.01;68.03;101474.91;4840907;29;45330;-75
2022/10/27 02:15:39;;;;;;;;;1.50;0.50;;;;;17.98;68.50;101467.84;4837532;29;45259;-74
2022/10/27 02:18:09;;;;;;;;;2.25;1.25;;;;;18.00;68.12;101467.78;4843785;29;45411;-75
2022/10/27 02:20:39;;;;;;;;;2.75;1.50;;;;;18.04;68.36;101470.25;4832415;29;46323;-75
2022/10/27 02:23:11;;;;;;;;;1.25;1.25;;;;;18.05;68.04;101465.72;4847016;29;45458;-75
2022/10/27 02:26:02;;;;;;;;;3.00;1.75;;;;;18.06;68.46;101470.13;4840817;29;45261;-75
2022/10/27 02:28:35;;;;;;;;;4.00;3.25;;;;;18.06;68.32;101460.22;4830043;29;45339;-75
2022/10/27 02:31:01;;;;;;;;;1.50;1.50;;;;;18.02;67.93;101453.22;4828357;29;47324;-75
2022/10/27 02:33:27;;;;;;;;;0.75;0.75;;;;;18.02;68.34;101458.63;4829142;29;45272;-75
2022/10/27 02:35:54;;;;;;;;;1.50;1.50;;;;;18.07;68.31;101456.56;4834861;29;45373;-75
2022/10/27 02:38:20;;;;;;;;;3.25;2.00;;;;;18.07;68.00;101447.59;4843485;29;45671;-75
2022/10/27 02:40:46;;;;;;;;;2.50;1.50;;;;;18.00;67.84;101448.88;4829305;29;46222;-75
2022/10/27 02:43:12;;;;;;;;;2.00;2.00;;;;;18.06;67.85;101460.22;4840557;29;45210;-75
2022/10/27 02:45:37;;;;;;;;;2.50;2.50;;;;;18.02;67.67;101444.25;4829606;29;45267;-75
2022/10/27 02:48:03;;;;;;;;;1.50;1.50;;;;;18.03;68.20;101443.31;4839531;29;45431;-74
2022/10/27 02:50:28;;;;;;;;;3.50;2.25;;;;;18.05;67.80;101449.50;4829070;29;46349;-75
2022/10/27 02:52:53;;;;;;;;;1.50;1.50;;;;;18.04;67.97;101456.75;4834255;29;45425;-75
2022/10/27 02:55:18;;;;;;;;;1.50;1.50;;;;;18.03;68.31;101465.78;4836846;29;45238;-75
2022/10/27 02:57:45;;;;;;;;;0.75;0.50;;;;;17.93;68.34;101446.47;4846813;29;45516;-74
2022/10/27 03:00:11;;;;;;;;;3.25;1.75;;;;;17.98;67.92;101451.66;4852640;29;45360;-75
2022/10/27 03:02:37;;;;;;;;;1.25;0.50;;;;;17.99;68.25;101461.47;4831182;29;45466;-75
2022/10/27 03:05:02;;;;;;;;;2.00;2.00;;;;;18.00;68.36;101470.47;4829363;29;45252;-75
2022/10/27 03:07:28;;;;;;;;;2.50;1.50;;;;;17.98;68.03;101465.16;4836143;29;45405;-74
2022/10/27 03:09:53;;;;;;;;;2.25;2.25;;;;;17.92;67.87;101455.53;4828808;29;45404;-75
2022/10/27 03:12:18;;;;;;;;;1.25;1.25;;;;;17.91;68.24;101453.78;4839809;29;45263;-75
2022/10/27 03:14:44;;;;;;;;;2.00;2.00;;;;;17.91;67.89;101461.91;4846777;29;45343;-75
2022/10/27 03:17:09;;;;;;;;;1.50;1.50;;;;;17.91;68.35;101455.63;4833727;29;47622;-74
2022/10/27 03:19:34;;;;;;;;;2.50;2.50;;;;;17.87;68.27;101440.53;4839312;29;45320;-75
2022/10/27 03:22:00;;;;;;;;;4.50;4.50;;;;;17.89;67.91;101449.41;4829739;29;45414;-75
2022/10/27 03:24:25;;;;;;;;;1.50;1.50;;;;;17.87;68.08;101448.63;4839183;29;45270;-75
2022/10/27 03:26:50;;;;;;;;;1.50;1.50;;;;;17.83;67.91;101444.31;4840444;29;45371;-75
2022/10/27 03:29:16;;;;;;;;;3.00;3.00;;;;;17.81;68.05;101449.78;4845848;29;46272;-75
2022/10/27 03:31:41;;;;;;;;;2.00;2.00;;;;;17.81;67.90;101451.59;4832901;29;45259;-75
2022/10/27 03:34:06;;;;;;;;;2.75;2.00;;;;;17.72;68.08;101443.00;4828708;29;45262;-75
2022/10/27 03:36:32;;;;;;;;;3.50;1.75;;;;;17.81;67.72;101465.09;4836017;29;45330;-75
2022/10/27 03:38:57;;;;;;;;;4.50;3.50;;;;;17.74;68.05;101445.63;4828717;29;46313;-75
2022/10/27 03:41:22;;;;;;;;;2.25;2.25;;;;;17.75;68.04;101453.66;4840962;29;51336;-75
2022/10/27 03:43:48;;;;;;;;;4.00;2.50;;;;;17.70;68.11;101442.22;4846796;29;45423;-75
2022/10/27 03:46:13;;;;;;;;;4.50;2.00;;;;;17.73;67.67;101450.19;4844885;29;45275;-75
2022/10/27 03:48:38;;;;;;;;;3.75;3.00;;;;;17.76;68.04;101457.25;4845733;29;45703;-75
2022/10/27 03:51:04;;;;;;;;;2.75;2.75;;;;;17.73;67.68;101460.97;4831102;29;46620;-75
2022/10/27 03:53:29;;;;;;;;;3.50;2.50;;;;;17.71;67.88;101448.53;4828661;29;45252;-75
2022/10/27 03:55:54;;;;;;;;;2.00;1.00;;;;;17.64;67.67;101447.97;4845951;29;51085;-75
2022/10/27 03:58:20;;;;;;;;;2.25;2.25;;;;;17.67;67.59;101452.31;4834075;29;51180;-75
2022/10/27 04:00:45;;;;;;;;;2.00;2.00;;;;;17.59;67.92;101433.78;4836048;29;45337;-75
2022/10/27 04:03:11;;;;;;;;;3.00;3.00;;;;;17.63;68.24;101448.91;4828241;29;45366;-75
2022/10/27 04:05:36;;;;;;;;;2.75;1.25;;;;;17.64;67.84;101445.25;4828210;29;45477;-75
2022/10/27 04:08:01;;;;;;;;;3.75;2.75;;;;;17.67;68.08;101452.31;4840450;29;45684;-75
2022/10/27 04:10:27;;;;;;;;;4.25;3.00;;;;;17.64;68.02;101439.88;4852458;29;46295;-75
2022/10/27 04:12:55;;;;;;;;;3.50;3.00;;;;;17.62;67.92;101457.06;4842547;29;45441;-75
2022/10/27 04:15:21;;;;;;;;;3.00;3.00;;;;;17.62;68.08;101451.69;4835580;29;45512;-75
2022/10/27 04:17:47;;;;;;;;;4.00;3.00;;;;;17.59;67.65;101453.59;4831800;29;45312;-75
2022/10/27 04:20:13;;;;;;;;;4.00;2.50;;;;;17.59;68.26;101453.59;4839619;29;45397;-75
2022/10/27 04:22:38;;;;;;;;;2.25;2.25;;;;;17.59;67.88;101453.59;4829635;29;45563;-75
2022/10/27 04:25:04;;;;;;;;;2.50;2.50;;;;;17.60;68.03;101447.22;4834822;29;45518;-75
2022/10/27 04:27:30;;;;;;;;;2.75;2.75;;;;;17.57;67.91;101450.09;4848198;29;45277;-74
2022/10/27 04:29:55;;;;;;;;;2.25;1.25;;;;;17.57;68.12;101455.50;4845315;29;45492;-74
2022/10/27 04:32:20;;;;;;;;;3.00;2.00;;;;;17.55;67.65;101451.97;4840729;29;45346;-74
2022/10/27 04:34:46;;;;;;;;;3.00;2.00;;;;;17.55;68.04;101448.41;4828081;29;45337;-75
2022/10/27 04:37:11;;;;;;;;;2.75;2.75;;;;;17.51;67.71;101442.31;4845157;29;46065;-75
2022/10/27 04:39:37;;;;;;;;;3.00;3.00;;;;;17.46;67.63;101432.66;4846893;29;45281;-74
2022/10/27 04:42:02;;;;;;;;;2.25;2.25;;;;;17.45;67.86;101429.09;4838179;29;45263;-74
2022/10/27 04:44:27;;;;;;;;;2.50;2.50;;;;;17.49;67.90;101429.81;4830990;29;45302;-74
2022/10/27 04:46:53;;;;;;;;;5.00;3.00;;;;;17.38;67.94;101411.50;4832083;29;46221;-75
2022/10/27 04:49:18;;;;;;;;;3.00;2.75;;;;;17.48;68.25;101430.78;4837817;29;45341;-74
2022/10/27 04:51:43;;;;;;;;;3.50;3.00;;;;;17.44;68.21;101416.59;4830821;29;45474;-75
2022/10/27 04:54:09;;;;;;;;;4.50;4.00;;;;;17.40;67.91;101415.84;4830313;29;48672;-75
2022/10/27 04:56:34;;;;;;;;;3.00;3.00;;;;;17.49;67.94;101435.22;4844633;29;45511;-75
2022/10/27 04:58:59;;;;;;;;;4.75;3.50;;;;;17.50;68.05;101431.59;4848261;29;50777;-75
2022/10/27 05:01:25;;;;;;;;;4.00;4.00;;;;;17.44;68.13;101421.09;4833586;29;45458;-75
2022/10/27 05:03:50;;;;;;;;;4.00;4.00;;;;;17.50;67.98;101434.28;4861732;29;45524;-75
2022/10/27 05:06:16;;;;;;;;;4.00;4.00;;;;;17.47;68.50;101435.28;4846414;29;45428;-75
2022/10/27 05:08:41;;;;;;;;;5.50;5.50;;;;;17.37;68.30;101431.31;4834239;29;45314;-75
2022/10/27 05:11:06;;;;;;;;;4.00;4.00;;;;;17.46;68.31;101440.75;4844139;29;45424;-75
2022/10/27 05:13:32;;;;;;;;;6.25;4.50;;;;;17.47;68.28;101435.28;4840356;29;45253;-75
2022/10/27 05:16:02;;;;;;;;;3.50;3.50;;;;;17.44;68.16;101431.88;4836358;29;46210;-75
2022/10/27 05:18:28;;;;;;;;;4.50;4.00;;;;;17.37;68.03;101425.91;4838410;29;45275;-76
2022/10/27 05:20:55;;;;;;;;;5.00;3.50;;;;;17.39;68.15;101424.91;4830453;29;45324;-76
2022/10/27 05:23:20;;;;;;;;;3.25;3.25;;;;;17.27;68.33;101393.13;4831449;29;45537;-76
2022/10/27 05:25:53;;;;;;;;;4.25;4.00;;;;;17.34;68.08;101405.38;4842380;29;48242;-76
2022/10/27 05:28:19;;;;;;;;;3.25;3.25;;;;;17.36;68.08;101408.00;4840813;29;45401;-75
2022/10/27 05:30:44;;;;;;;;;4.25;3.25;;;;;17.37;67.85;101404.31;4835653;29;45252;-76
2022/10/27 05:33:09;;;;;;;;;3.75;3.25;;;;;17.34;67.79;101404.47;4848288;29;45569;-76
2022/10/27 05:35:35;;;;;;;;;6.75;5.00;;;;;17.40;68.17;101418.53;4846010;29;48327;-76
2022/10/27 05:38:00;;;;;;;;;5.00;4.25;;;;;17.33;67.91;101410.84;4844639;29;45445;-76
2022/10/27 05:40:26;;;;;;;;;4.75;3.50;;;;;17.36;68.39;101416.97;4840905;29;45217;-76
2022/10/27 05:42:53;;;;;;;;;4.00;4.00;;;;;17.38;68.10;101416.88;4846200;29;45500;-76
2022/10/27 05:45:20;;;;;;;;;4.75;4.00;;;;;17.35;68.10;101404.41;4830220;29;45273;-76
2022/10/27 05:47:46;;;;;;;;;5.00;5.00;;;;;17.32;68.14;101401.00;4837238;29;45592;-76
2022/10/27 05:50:12;;;;;;;;;4.25;3.50;;;;;17.32;67.97;101411.78;4844028;29;45535;-76
2022/10/27 05:52:37;;;;;;;;;4.00;4.00;;;;;17.32;68.00;101415.34;4843351;29;45391;-76
2022/10/27 05:55:02;;;;;;;;;4.00;4.00;;;;;17.28;67.94;101404.81;4845577;29;45485;-76
2022/10/27 05:57:28;;;;;;;;;3.75;2.00;;;;;17.31;68.53;101404.66;4848612;29;45348;-76
2022/10/27 05:59:53;;;;;;;;;4.50;4.00;;;;;17.32;68.49;101409.09;4846907;29;45295;-76
2022/10/27 06:02:18;;;;;;;;;4.75;4.00;;;;;17.31;68.39;101405.53;4844909;29;45454;-76
2022/10/27 06:04:44;;;;;;;;;5.75;3.00;;;;;17.30;68.20;101392.97;4830717;29;45375;-76
2022/10/27 06:07:09;;;;;;;;;4.00;3.25;;;;;17.16;68.16;101369.38;4840463;29;45619;-76
2022/10/27 06:09:34;;;;;;;;;5.00;5.00;;;;;17.31;68.51;101393.88;4839054;29;45581;-76
2022/10/27 06:12:00;;;;;;;;;6.00;4.75;;;;;17.30;68.15;101392.97;4847217;29;45410;-76
2022/10/27 06:14:25;;;;;;;;;4.25;3.00;;;;;17.27;68.33;101393.13;4831785;29;46174;-76
2022/10/27 06:16:50;;;;;;;;;5.25;5.00;;;;;17.29;68.53;101393.03;4834675;29;45307;-76
2022/10/27 06:19:16;;;;;;;;;7.00;5.00;;;;;17.27;68.70;101398.50;4837514;29;50377;-76
2022/10/27 06:21:41;;;;;;;;;4.00;4.00;;;;;17.28;68.25;101400.28;4838751;29;48448;-76
2022/10/27 06:24:06;;;;;;;;;3.25;3.25;;;;;17.27;68.24;101398.50;4846129;29;46473;-76
2022/10/27 06:26:32;;;;;;;;;5.00;5.00;;;;;17.26;68.31;101390.50;4843178;29;45390;-76
2022/10/27 06:28:57;;;;;;;;;9.25;9.00;;;;;17.27;68.38;101382.31;4829754;29;45468;-76
2022/10/27 06:31:22;;;;;;;;;4.25;4.25;;;;;17.29;68.61;101379.56;4828926;29;45333;-76
2022/10/27 06:33:48;;;;;;;;;4.00;4.00;;;;;17.26;68.15;101367.09;4842979;29;46103;-76
2022/10/27 06:36:13;;;;;;;;;3.75;3.75;;;;;17.23;68.16;101360.03;4837581;29;45708;-76
2022/10/27 06:38:38;;;;;;;;;5.00;4.00;;;;;17.26;68.47;101364.41;4847351;29;45268;-76
2022/10/27 06:41:04;;;;;;;;;5.25;4.00;;;;;17.22;67.98;101369.09;4834439;29;45441;-76
2022/10/27 06:43:29;;;;;;;;;4.50;4.00;;;;;17.26;68.38;101375.19;4826480;29;47262;-76
2022/10/27 06:45:55;;;;;;;;;5.00;3.75;;;;;17.25;68.52;101378.84;4844799;29;45200;-76
2022/10/27 06:48:20;;;;;;;;;5.00;4.00;;;;;17.17;68.24;101356.75;4840580;29;45286;-76
2022/10/27 06:50:45;;;;;;;;;5.75;5.75;;;;;17.26;68.77;101374.31;4844943;29;49807;-75
2022/10/27 06:53:11;;;;;;;;;3.00;3.00;;;;;17.27;68.42;101370.66;4829083;29;45270;-75
2022/10/27 06:55:36;;;;;;;;;6.25;6.00;;;;;17.26;68.17;101371.59;4830162;29;45418;-75
2022/10/27 06:58:02;;;;;;;;;7.25;5.50;;;;;17.26;68.44;101368.91;4855717;29;45460;-75
2022/10/27 07:00:27;;;;;;;;;8.75;4.75;;;;;17.24;68.32;101369.03;4845627;29;45470;-79
2022/10/27 07:02:53;;;;;;;;;5.50;5.50;;;;;17.29;68.31;101377.75;4828644;29;46225;-79
2022/10/27 07:05:18;;;;;;;;;4.50;4.50;;;;;17.26;68.34;101380.59;4839536;29;45376;-80
2022/10/27 07:07:49;;;;;;;;;5.00;5.00;;;;;17.29;68.77;101384.94;4847427;29;45325;-80
2022/10/27 07:10:15;;;;;;;;;10.00;5.25;;;;;17.28;68.74;101397.56;4841725;29;45472;-79
2022/10/27 07:12:55;;;;;;;;;4.00;4.00;;;;;17.27;68.63;101403.03;4837527;29;47039;-80
2022/10/27 07:15:22;;;;;;;;;6.25;5.00;;;;;17.23;68.47;101402.34;4844143;29;45328;-79
2022/10/27 07:17:52;;;;;;;;;7.25;6.25;;;;;17.18;68.71;101410.66;4835226;29;45337;-79
2022/10/27 07:20:18;;;;;;;;;4.75;4.00;;;;;17.19;68.84;101396.22;4844207;29;45316;-79
2022/10/27 07:22:43;;;;;;;;;4.00;4.00;;;;;17.24;68.81;101404.09;4833699;29;45962;-79
2022/10/27 07:25:08;;;;;;;;;5.00;5.00;;;;;17.19;69.19;101407.00;4850725;29;47051;-80
2022/10/27 07:27:34;;;;;;;;;7.75;5.00;;;;;17.25;69.02;101418.44;4847066;29;45424;-79
2022/10/27 07:29:59;;;;;;;;;6.25;5.25;;;;;17.25;69.15;101423.84;4836345;29;45301;-79
2022/10/27 07:32:24;;;;;;;;;7.00;4.00;;;;;17.25;68.78;101440.03;4836126;29;45647;-80
2022/10/27 07:34:50;;;;;;;;;4.25;3.00;;;;;17.23;68.86;101450.91;4839193;29;46821;-79
2022/10/27 07:37:15;;;;;;;;;5.00;5.00;;;;;17.16;69.14;101453.03;4836710;29;45410;-79
2022/10/27 07:39:40;;;;;;;;;5.00;4.00;;;;;17.20;68.97;101461.84;4832997;29;45340;-79
2022/10/27 07:42:06;;;;;;;;;7.75;4.50;;;;;17.18;68.82;101443.00;4834656;29;45255;-79
2022/10/27 07:44:31;;;;;;;;;0.75;0.75;;;;;17.21;68.84;101448.28;4844900;29;45342;-79
2022/10/27 07:46:56;;;;;;;;;5.25;5.00;;;;;17.19;69.22;101446.59;4831757;29;45693;-79
2022/10/27 07:49:21;;;;;;;;;5.00;4.00;;;;;17.22;69.44;101458.13;4840073;29;45480;-80
2022/10/27 07:51:47;;;;;;;;;3.00;3.00;;;;;17.22;69.31;101463.53;4827632;29;52949;-80
2022/10/27 07:54:12;;;;;;;;;6.25;5.25;;;;;17.27;69.48;101463.28;4844175;29;45419;-80
2022/10/27 07:56:37;;;;;;;;;6.00;4.50;;;;;17.27;69.60;101441.69;4852946;29;45253;-79
2022/10/27 07:59:03;;;;;;;;;6.00;6.00;;;;;17.29;69.71;101436.22;4846960;29;45446;-79
2022/10/27 08:01:29;;;;;;;;;8.25;5.25;;;;;17.32;69.46;101446.84;4844646;29;45292;-80
2022/10/27 08:03:54;;;;;;;;;6.25;4.75;;;;;17.28;69.36;101432.66;4842147;29;45242;-80
2022/10/27 08:06:19;;;;;;;;;6.25;5.50;;;;;17.36;69.60;101445.78;4843353;29;46166;-80
2022/10/27 08:08:45;;;;;;;;;6.00;6.00;;;;;17.34;69.39;101434.16;4842125;29;45328;-80
2022/10/27 08:11:10;;;;;;;;;5.00;4.25;;;;;17.30;69.55;101430.75;4846545;29;45384;-80
2022/10/27 08:13:35;;;;;;;;;6.50;5.25;;;;;17.41;69.37;101444.59;4850007;29;45577;-80
2022/10/27 08:16:01;;;;;;;;;0.75;0.75;;;;;17.42;69.70;101440.06;4837860;29;45429;-79
2022/10/27 08:18:26;;;;;;;;;4.75;4.75;;;;;17.40;69.48;101431.16;4838696;29;45391;-79
2022/10/27 08:20:52;;;;;;;;;6.00;6.00;;;;;17.40;69.90;101434.72;4836662;29;45324;-80
2022/10/27 08:23:20;;;;;;;;;4.50;4.50;;;;;17.44;69.68;101448.97;4835869;29;45287;-80
2022/10/27 08:25:46;;;;;;;;;7.00;7.00;;;;;17.49;70.02;101452.31;4837661;29;45826;-80
2022/10/27 08:28:13;;;;;;;;;7.00;5.75;;;;;17.50;69.70;101456.75;4853979;29;45359;-80
2022/10/27 08:30:39;;;;;;;;;6.00;5.50;;;;;17.50;69.71;101458.56;4841400;29;47253;-79
2022/10/27 08:33:05;;;;;;;;;6.75;5.50;;;;;17.54;70.25;101457.44;4837522;29;45320;-80
2022/10/27 08:35:32;;;;;;;;;4.25;4.25;;;;;17.51;70.03;101450.41;4846890;29;45374;-80
2022/10/27 08:37:59;;;;;;;;;7.50;7.50;;;;;17.51;69.95;101450.41;4843368;29;45428;-80
2022/10/27 08:40:34;;;;;;;;;8.25;7.25;;;;;17.48;70.11;101447.00;4841596;29;47144;-80
2022/10/27 08:43:07;;;;;;;;;6.25;5.75;;;;;17.61;69.73;101464.31;4843891;29;45351;-79
2022/10/27 08:45:47;;;;;;;;;6.75;6.75;;;;;17.58;69.84;101451.81;4846424;29;45342;-80
2022/10/27 08:48:17;;;;;;;;;7.75;7.75;;;;;17.64;69.97;101455.16;4838938;29;45443;-80
2022/10/27 08:50:43;;;;;;;;;5.50;4.00;;;;;17.64;69.84;101456.06;4837521;29;46138;-79
2022/10/27 08:53:14;;;;;;;;;8.00;7.50;;;;;17.67;69.66;101465.81;4844043;29;45266;-79
2022/10/27 08:55:52;;;;;;;;;8.25;7.75;;;;;17.68;69.64;101472.97;4837376;29;45495;-79
2022/10/27 08:58:32;;;;;;;;;10.00;7.75;;;;;17.71;69.73;101465.59;4837227;29;45447;-79
2022/10/27 09:01:25;;;;;;;;;5.00;5.00;;;;;17.72;69.72;101467.31;4834201;29;45375;-79
2022/10/27 09:04:05;;;;;;;;;8.50;6.25;;;;;17.74;69.59;101467.25;4830584;29;45466;-79
2022/10/27 09:06:54;;;;;;;;;8.25;6.25;;;;;17.77;69.72;101472.50;4831878;29;45601;-79
2022/10/27 09:09:41;;;;;;;;;9.00;6.75;;;;;17.80;69.70;101471.47;4840754;29;45247;-79
2022/10/27 09:12:46;;;;;;;;;6.75;6.75;;;;;17.84;69.98;101475.75;4832331;29;45319;-77
2022/10/27 09:15:38;;;;;;;;;9.25;7.25;;;;;17.86;69.88;101471.13;4840124;29;45280;-76
2022/10/27 09:18:16;;;;;;;;;6.25;5.25;;;;;17.77;69.62;101465.28;4838874;29;45429;-77
2022/10/27 09:20:50;;;;;;;;;7.25;6.25;;;;;17.88;69.68;101482.78;4836340;29;45423;-76
2022/10/27 09:23:18;;;;;;;;;5.50;5.50;;;;;17.88;69.87;101469.28;4839900;29;46185;-80
2022/10/27 09:25:47;;;;;;;;;7.00;5.75;;;;;17.93;69.67;101472.63;4839401;29;45402;-79
2022/10/27 09:28:33;;;;;;;;;7.25;7.25;;;;;17.99;69.75;101483.09;4836866;29;45437;-79
2022/10/27 09:31:01;;;;;;;;;12.25;11.75;;;;;18.02;69.60;101490.19;4830757;29;45753;-79
2022/10/27 09:33:33;;;;;;;;;8.00;7.00;;;;;17.91;69.78;101479.94;4829598;29;45519;-80
2022/10/27 09:36:01;;;;;;;;;7.50;7.25;;;;;18.07;69.80;101497.06;4836468;29;45331;-79
2022/10/27 09:38:27;;;;;;;;;8.25;7.75;;;;;18.08;70.40;101490.72;4847755;29;45237;-79
2022/10/27 09:40:53;;;;;;;;;9.25;6.75;;;;;18.14;70.26;101503.03;4859715;29;45476;-80
2022/10/27 09:43:20;;;;;;;;;7.25;5.75;;;;;18.15;69.81;101492.16;4842742;29;46093;-79
2022/10/27 09:45:50;;;;;;;;;3.00;3.00;;;;;18.14;69.94;101490.41;4836097;29;45847;-79
2022/10/27 09:48:21;;;;;;;;;6.75;6.25;;;;;18.18;70.07;101498.38;4843023;29;45494;-79
2022/10/27 09:51:03;;;;;;;;;6.00;6.00;;;;;18.24;70.41;101481.81;4848339;29;45505;-79
2022/10/27 09:53:42;;;;;;;;;6.50;6.50;;;;;18.31;70.16;101485.97;4829917;29;45381;-80
2022/10/27 09:56:12;;;;;;;;;9.75;8.50;;;;;18.32;69.75;101452.56;4841520;29;45545;-80
2022/10/27 09:58:46;;;;;;;;;5.75;5.75;;;;;18.38;69.70;101454.06;4864460;29;45288;-79
2022/10/27 10:01:11;;;;;;;;;5.75;5.75;;;;;18.40;69.96;101457.56;4833156;29;45442;-79
2022/10/27 10:03:38;;;;;;;;;6.50;6.50;;;;;18.49;69.57;101471.47;4837433;29;45994;-79
2022/10/27 10:06:21;;;;;;;;;6.00;6.00;;;;;18.55;69.28;101462.13;4846381;29;45502;-79
2022/10/27 10:08:47;;;;;;;;;5.75;4.00;;;;;18.56;69.51;101463.88;4834077;29;45328;-80
2022/10/27 10:11:21;;;;;;;;;9.25;6.50;;;;;18.63;68.85;101481.53;4838974;29;50196;-80
2022/10/27 10:14:00;;;;;;;;;6.50;5.50;;;;;18.66;68.91;101473.25;4842972;29;45358;-79
2022/10/27 10:16:31;;;;;;;;;8.25;6.00;;;;;18.71;69.06;101481.09;4838951;29;45857;-79
2022/10/27 10:19:14;;;;;;;;;8.75;5.25;;;;;18.77;68.93;101474.47;4842685;29;45372;-80
2022/10/27 10:21:59;;;;;;;;;4.25;4.25;;;;;18.81;68.77;101468.81;4848640;29;45440;-79
2022/10/27 10:24:32;;;;;;;;;5.00;5.00;;;;;18.87;68.34;101473.03;4872448;29;48229;-80
2022/10/27 10:27:01;;;;;;;;;7.50;6.00;;;;;18.91;68.58;101477.34;4847534;29;45578;-80
2022/10/27 10:29:35;;;;;;;;;5.50;3.75;;;;;18.92;68.46;101480.91;4842011;29;45376;-80
2022/10/27 10:32:11;;;;;;;;;7.00;5.75;;;;;18.99;68.39;101483.16;4837681;29;45759;-81
2022/10/27 10:34:37;;;;;;;;;5.50;4.50;;;;;19.03;68.14;101481.19;4836710;29;45342;-81
2022/10/27 10:37:23;;;;;;;;;6.00;5.00;;;;;19.01;68.17;101467.75;4844014;29;45296;-81
2022/10/27 10:39:48;;;;;;;;;9.50;7.25;;;;;19.14;68.06;101488.69;4843777;29;45484;-82
2022/10/27 10:42:17;;;;;;;;;6.75;6.75;;;;;19.18;68.05;101482.16;4832669;29;45421;-81
2022/10/27 10:44:43;;;;;;;;;6.75;4.75;;;;;19.20;68.11;101482.94;4835442;29;47214;-81
2022/10/27 10:47:24;;;;;;;;;7.00;5.25;;;;;19.27;68.63;101487.03;4842164;29;45561;-81
2022/10/27 10:49:54;;;;;;;;;6.75;6.00;;;;;19.30;68.30;101477.88;4840452;29;45455;-82
2022/10/27 10:52:23;;;;;;;;;7.25;5.25;;;;;19.35;67.74;101481.19;4847666;29;45430;-81
2022/10/27 10:54:48;;;;;;;;;6.25;5.00;;;;;19.38;68.43;101470.19;4833814;29;46752;-81
2022/10/27 10:57:35;;;;;;;;;9.00;5.00;;;;;19.42;67.94;101460.91;4839605;29;45207;-81
2022/10/27 11:00:04;;;;;;;;;7.50;4.75;;;;;19.48;68.00;101465.97;4854796;29;45270;-81
2022/10/27 11:02:31;;;;;;;;;9.50;5.75;;;;;19.51;67.99;101471.22;4836672;29;45432;-82
2022/10/27 11:05:09;;;;;;;;;6.00;4.75;;;;;19.44;67.36;101457.16;4828881;29;46275;-82
2022/10/27 11:07:35;;;;;;;;;5.50;5.50;;;;;19.56;67.54;101473.63;4828985;29;45404;-81
2022/10/27 11:10:12;;;;;;;;;5.00;4.00;;;;;19.59;67.15;101473.44;4838139;29;45440;-81
2022/10/27 11:12:46;;;;;;;;;7.00;6.75;;;;;19.62;66.96;101482.25;4845933;29;45301;-81
2022/10/27 11:15:22;;;;;;;;;8.00;6.50;;;;;19.66;67.15;101466.69;4845063;29;46582;-81
2022/10/27 11:17:51;;;;;;;;;6.75;6.00;;;;;19.69;66.72;101452.97;4846141;29;45354;-82
2022/10/27 11:20:27;;;;;;;;;8.00;7.00;;;;;19.74;67.14;101444.59;4844934;29;45330;-81
2022/10/27 11:22:55;;;;;;;;;6.50;5.50;;;;;19.79;66.99;101448.78;4845267;29;45281;-82
2022/10/27 11:25:27;;;;;;;;;10.25;5.50;;;;;19.81;66.43;101451.41;4846179;29;45596;-81
2022/10/27 11:28:16;;;;;;;;;6.50;4.50;;;;;19.88;66.09;101451.91;4843603;29;45484;-81
2022/10/27 11:30:52;;;;;;;;;5.50;5.00;;;;;19.94;66.49;101456.97;4834286;29;45613;-81
2022/10/27 11:33:24;;;;;;;;;7.00;6.25;;;;;20.01;66.40;101449.34;4836233;29;45361;-82